Time;durP1;ratioP1;P1;durP2;ratioP2;P2;SDS_P1;SDS_P2;PMS_P1;PMS_P2;Temp;Humidity;BMP_temperature;BMP_pressure;BME280_temperature;BME280_humidity;BME280_pressure;Samples;Min_cycle;Max_cycle;Signal;HPM_P1;HPM_P2
2023/06/19 00:01:12;;;;;;;10.00;9.00;;;;;;;;;;6137596;23;20376;-88
2023/06/19 00:03:38;;;;;;;10.17;8.63;;;;;;;;;;6137055;23;20479;-89
2023/06/19 00:06:05;;;;;;;9.37;8.47;;;;;;;;;;6161808;23;20391;-87
2023/06/19 00:08:31;;;;;;;11.80;9.27;;;;;;;;;;6136788;23;20414;-88
2023/06/19 00:10:57;;;;;;;16.20;9.30;;;;;;;;;;6134854;23;20384;-88
2023/06/19 00:13:23;;;;;;;11.23;9.80;;;;;;;;;;6133083;23;20380;-88
2023/06/19 00:15:49;;;;;;;10.73;9.73;;;;;;;;;;6135059;23;20919;-88
2023/06/19 00:18:17;;;;;;;9.97;8.63;;;;;;;;;;6134280;23;20441;-88
2023/06/19 00:20:45;;;;;;;11.20;10.03;;;;;;;;;;6137041;23;20458;-88
2023/06/19 00:23:13;;;;;;;10.13;9.13;;;;;;;;;;6136413;23;20423;-88
2023/06/19 00:25:39;;;;;;;9.40;8.50;;;;;;;;;;6138199;23;20391;-88
2023/06/19 00:28:13;;;;;;;9.23;8.17;;;;;;;;;;6136001;23;20400;-87
2023/06/19 00:30:39;;;;;;;8.77;7.87;;;;;;;;;;6139100;23;20360;-88
2023/06/19 00:33:05;;;;;;;9.77;8.83;;;;;;;;;;6160537;23;20403;-87
2023/06/19 00:35:31;;;;;;;11.00;8.67;;;;;;;;;;6135113;23;20376;-89
2023/06/19 00:38:00;;;;;;;11.67;8.97;;;;;;;;;;6135234;23;20403;-88
2023/06/19 00:40:29;;;;;;;10.07;9.07;;;;;;;;;;6138709;23;20408;-88
2023/06/19 00:42:55;;;;;;;10.00;9.10;;;;;;;;;;6160902;23;20598;-87
2023/06/19 00:45:21;;;;;;;9.97;8.90;;;;;;;;;;6135833;23;20371;-88
2023/06/19 00:47:47;;;;;;;9.50;8.60;;;;;;;;;;6136453;23;20376;-87
2023/06/19 00:50:13;;;;;;;10.57;9.57;;;;;;;;;;6138588;23;20384;-87
2023/06/19 00:52:39;;;;;;;9.63;8.23;;;;;;;;;;6138648;23;20398;-88
2023/06/19 00:55:06;;;;;;;9.87;8.77;;;;;;;;;;6138472;23;20423;-87
2023/06/19 00:57:33;;;;;;;11.20;8.90;;;;;;;;;;6136216;23;20904;-88
2023/06/19 00:59:59;;;;;;;9.17;8.13;;;;;;;;;;6164726;23;20420;-88
2023/06/19 01:02:25;;;;;;;9.27;8.47;;;;;;;;;;6188968;23;20422;-88
2023/06/19 01:04:51;;;;;;;9.50;8.57;;;;;;;;;;6137668;23;20418;-88
2023/06/19 01:07:18;;;;;;;10.50;8.60;;;;;;;;;;6136860;23;20376;-88
2023/06/19 01:09:48;;;;;;;9.00;8.10;;;;;;;;;;6138477;23;20384;-87
2023/06/19 01:12:16;;;;;;;8.20;7.40;;;;;;;;;;6137321;23;21054;-88
2023/06/19 01:14:54;;;;;;;8.23;7.43;;;;;;;;;;6138928;23;20398;-88
2023/06/19 01:17:20;;;;;;;8.80;7.40;;;;;;;;;;6137157;23;20384;-88
2023/06/19 01:19:46;;;;;;;7.80;7.00;;;;;;;;;;6138010;23;20776;-88
2023/06/19 01:22:17;;;;;;;8.77;6.80;;;;;;;;;;6137041;23;20439;-88
2023/06/19 01:29:55;;;;;;;8.73;5.90;;;;;;;;;;6189889;23;20850;-88
2023/06/19 01:32:23;;;;;;;15.17;6.13;;;;;;;;;;6164174;23;20373;-89
2023/06/19 01:34:49;;;;;;;7.30;6.00;;;;;;;;;;6136944;23;20384;-90
2023/06/19 01:37:15;;;;;;;6.97;5.90;;;;;;;;;;6137618;23;20414;-90
2023/06/19 01:39:41;;;;;;;7.13;6.00;;;;;;;;;;6137943;23;20391;-88
2023/06/19 01:42:09;;;;;;;9.70;5.40;;;;;;;;;;6137608;23;20438;-89
2023/06/19 01:44:35;;;;;;;6.47;5.80;;;;;;;;;;6163582;23;20992;-88
2023/06/19 01:47:07;;;;;;;7.20;6.23;;;;;;;;;;6136656;23;20387;-88
2023/06/19 01:49:33;;;;;;;7.33;5.90;;;;;;;;;;6162297;23;20376;-90
2023/06/19 01:52:00;;;;;;;6.17;5.57;;;;;;;;;;6136400;23;20384;-88
2023/06/19 01:54:27;;;;;;;10.03;6.43;;;;;;;;;;6136420;23;20380;-88
2023/06/19 01:56:53;;;;;;;6.63;5.93;;;;;;;;;;6137157;23;20448;-89
2023/06/19 01:59:19;;;;;;;6.60;5.90;;;;;;;;;;6138838;23;20391;-89
2023/06/19 02:01:45;;;;;;;6.70;6.10;;;;;;;;;;6137661;23;20431;-87
2023/06/19 02:04:11;;;;;;;8.33;5.73;;;;;;;;;;6136397;23;20438;-89
2023/06/19 02:06:37;;;;;;;6.97;6.27;;;;;;;;;;6137230;23;20410;-88
2023/06/19 02:09:03;;;;;;;6.00;5.40;;;;;;;;;;6138252;23;20840;-88
2023/06/19 02:11:29;;;;;;;7.07;5.40;;;;;;;;;;6136623;23;20411;-89
2023/06/19 02:13:55;;;;;;;5.97;5.37;;;;;;;;;;6138219;23;20386;-87
2023/06/19 02:16:21;;;;;;;7.77;5.80;;;;;;;;;;6135766;23;20380;-88
2023/06/19 02:18:48;;;;;;;5.90;5.30;;;;;;;;;;6138012;23;20384;-89
2023/06/19 02:21:14;;;;;;;5.00;4.50;;;;;;;;;;6137679;23;20463;-88
2023/06/19 02:23:40;;;;;;;10.23;6.00;;;;;;;;;;6136442;23;20404;-89
2023/06/19 02:26:06;;;;;;;6.87;5.87;;;;;;;;;;6162181;23;20372;-89
2023/06/19 02:28:32;;;;;;;7.23;5.53;;;;;;;;;;6137313;23;20384;-88
2023/06/19 02:30:59;;;;;;;5.97;5.20;;;;;;;;;;6161930;23;20352;-88
2023/06/19 02:33:25;;;;;;;5.53;5.03;;;;;;;;;;6136952;23;20372;-88
2023/06/19 02:35:51;;;;;;;5.67;4.70;;;;;;;;;;6161588;23;20403;-89
2023/06/19 02:38:21;;;;;;;7.10;5.57;;;;;;;;;;6136464;23;20380;-89
2023/06/19 02:40:47;;;;;;;6.07;5.47;;;;;;;;;;6138487;23;20406;-88
2023/06/19 02:43:13;;;;;;;5.33;4.80;;;;;;;;;;6137018;23;20427;-88
2023/06/19 02:45:39;;;;;;;6.50;5.17;;;;;;;;;;6136870;23;20376;-88
2023/06/19 02:48:05;;;;;;;6.83;5.10;;;;;;;;;;6137430;23;20393;-88
2023/06/19 02:50:31;;;;;;;6.50;5.90;;;;;;;;;;6137154;23;20380;-88
2023/06/19 02:52:57;;;;;;;5.30;4.80;;;;;;;;;;6160787;23;20706;-88
2023/06/19 02:55:23;;;;;;;6.67;5.43;;;;;;;;;;6136594;23;20766;-88
2023/06/19 02:57:49;;;;;;;5.50;5.00;;;;;;;;;;6161805;23;20368;-88
2023/06/19 03:00:15;;;;;;;8.60;4.50;;;;;;;;;;6139298;23;20395;-88
2023/06/19 03:02:43;;;;;;;4.80;4.40;;;;;;;;;;6136356;23;20428;-88
2023/06/19 03:05:09;;;;;;;5.30;4.80;;;;;;;;;;6161224;23;20373;-89
2023/06/19 03:07:35;;;;;;;4.73;4.20;;;;;;;;;;6138935;23;20961;-88
2023/06/19 03:10:01;;;;;;;5.57;5.07;;;;;;;;;;6140484;23;20399;-88
2023/06/19 03:12:27;;;;;;;5.77;5.20;;;;;;;;;;6137114;23;20434;-89
2023/06/19 03:14:53;;;;;;;8.00;5.03;;;;;;;;;;6137101;23;20380;-87
2023/06/19 03:17:19;;;;;;;6.80;5.13;;;;;;;;;;6163146;23;20372;-88
2023/06/19 03:19:45;;;;;;;6.30;5.53;;;;;;;;;;6138439;23;20379;-88
2023/06/19 03:22:11;;;;;;;5.30;4.77;;;;;;;;;;6139454;23;20428;-87
2023/06/19 03:24:37;;;;;;;6.10;4.60;;;;;;;;;;6163386;23;20364;-89
2023/06/19 03:27:04;;;;;;;5.00;4.47;;;;;;;;;;6164371;23;20369;-89
2023/06/19 03:29:32;;;;;;;5.37;4.87;;;;;;;;;;6139494;23;20727;-89
2023/06/19 03:31:58;;;;;;;6.67;4.80;;;;;;;;;;6140205;23;20384;-89
2023/06/19 03:34:24;;;;;;;5.63;4.27;;;;;;;;;;6139878;23;20443;-89
2023/06/19 03:36:50;;;;;;;4.33;3.93;;;;;;;;;;6078162;23;20782;-89
2023/06/19 03:39:16;;;;;;;4.93;4.17;;;;;;;;;;6074052;23;20383;-88
2023/06/19 03:41:42;;;;;;;5.17;4.20;;;;;;;;;;6074908;23;21220;-89
2023/06/19 03:44:08;;;;;;;4.87;3.87;;;;;;;;;;6075931;23;20383;-88
2023/06/19 03:46:34;;;;;;;6.17;3.40;;;;;;;;;;6078654;23;20372;-90
2023/06/19 03:49:03;;;;;;;3.93;3.53;;;;;;;;;;6076764;23;20425;-88
2023/06/19 03:51:29;;;;;;;3.80;3.40;;;;;;;;;;6077387;23;20383;-89
2023/06/19 03:53:55;;;;;;;4.97;3.67;;;;;;;;;;6074496;23;20405;-89
2023/06/19 03:56:21;;;;;;;4.77;2.90;;;;;;;;;;6074794;23;20478;-89
2023/06/19 03:58:47;;;;;;;5.70;4.07;;;;;;;;;;6074452;23;20404;-89
2023/06/19 04:01:13;;;;;;;10.63;3.43;;;;;;;;;;6075493;23;20383;-89
2023/06/19 04:03:40;;;;;;;3.97;3.30;;;;;;;;;;6073631;23;20417;-88
2023/06/19 04:06:06;;;;;;;6.00;3.40;;;;;;;;;;6074073;23;20397;-88
2023/06/19 04:08:32;;;;;;;3.90;3.50;;;;;;;;;;6126329;23;20378;-89
2023/06/19 04:10:58;;;;;;;6.37;4.00;;;;;;;;;;6167199;23;20387;-89
2023/06/19 04:13:25;;;;;;;4.00;3.10;;;;;;;;;;6138424;23;20380;-89
2023/06/19 04:15:51;;;;;;;4.97;3.43;;;;;;;;;;6141311;23;20871;-88
2023/06/19 04:18:17;;;;;;;4.00;3.33;;;;;;;;;;6140117;23;20376;-90
2023/06/19 04:20:43;;;;;;;3.87;3.40;;;;;;;;;;6165997;23;20717;-89
2023/06/19 04:23:09;;;;;;;3.83;3.17;;;;;;;;;;6165992;23;20867;-89
2023/06/19 04:25:35;;;;;;;4.23;3.13;;;;;;;;;;6144033;23;20379;-89
2023/06/19 04:28:03;;;;;;;4.13;3.10;;;;;;;;;;6142940;23;20382;-88
2023/06/19 04:30:30;;;;;;;4.97;3.20;;;;;;;;;;6142727;23;20396;-88
2023/06/19 04:32:56;;;;;;;3.67;2.90;;;;;;;;;;6141622;23;20768;-88
2023/06/19 04:35:23;;;;;;;3.73;2.97;;;;;;;;;;6141297;23;20757;-89
2023/06/19 04:37:49;;;;;;;3.33;2.60;;;;;;;;;;6142619;23;20391;-89
2023/06/19 04:40:16;;;;;;;5.50;3.40;;;;;;;;;;6142158;23;20735;-87
2023/06/19 04:42:43;;;;;;;4.83;4.03;;;;;;;;;;6195011;23;20408;-89
2023/06/19 04:45:09;;;;;;;5.33;3.90;;;;;;;;;;6140796;23;20381;-89
2023/06/19 04:47:36;;;;;;;5.50;3.80;;;;;;;;;;6140982;23;20412;-88
2023/06/19 04:50:02;;;;;;;4.30;3.50;;;;;;;;;;6164817;23;20371;-89
2023/06/19 04:52:28;;;;;;;3.23;2.90;;;;;;;;;;6166293;23;20380;-89
2023/06/19 04:54:54;;;;;;;3.97;3.20;;;;;;;;;;6140572;23;20384;-88
2023/06/19 04:57:20;;;;;;;4.00;3.20;;;;;;;;;;6141314;23;20383;-88
2023/06/19 04:59:46;;;;;;;6.13;3.63;;;;;;;;;;6141457;23;20391;-89
2023/06/19 05:02:12;;;;;;;5.53;3.70;;;;;;;;;;6164349;23;20416;-89
2023/06/19 05:04:38;;;;;;;5.10;3.40;;;;;;;;;;6141275;23;20701;-89
2023/06/19 05:07:04;;;;;;;4.00;3.03;;;;;;;;;;6142213;23;20433;-89
2023/06/19 05:09:30;;;;;;;4.60;3.47;;;;;;;;;;6142124;23;20440;-90
2023/06/19 05:11:57;;;;;;;4.43;3.20;;;;;;;;;;6144128;23;20388;-90
2023/06/19 05:14:26;;;;;;;4.10;3.27;;;;;;;;;;6139785;23;20467;-88
2023/06/19 05:16:52;;;;;;;6.40;2.83;;;;;;;;;;6141017;23;20443;-88
2023/06/19 05:19:18;;;;;;;4.50;2.50;;;;;;;;;;6140973;23;20388;-89
2023/06/19 05:21:44;;;;;;;5.23;2.90;;;;;;;;;;6166254;23;20494;-89
2023/06/19 05:24:10;;;;;;;3.67;2.97;;;;;;;;;;6141657;23;20408;-89
2023/06/19 05:26:36;;;;;;;4.70;3.60;;;;;;;;;;6143951;23;20970;-89
2023/06/19 05:29:02;;;;;;;4.63;2.90;;;;;;;;;;6142156;23;20403;-88
2023/06/19 05:31:28;;;;;;;8.83;3.20;;;;;;;;;;6142889;23;20399;-89
2023/06/19 05:33:54;;;;;;;5.13;3.33;;;;;;;;;;6141229;23;20435;-88
2023/06/19 05:36:20;;;;;;;4.17;3.23;;;;;;;;;;6141565;23;20368;-87
2023/06/19 05:38:46;;;;;;;5.00;3.10;;;;;;;;;;6141444;23;20387;-89
2023/06/19 05:41:17;;;;;;;3.80;3.30;;;;;;;;;;6145129;23;20439;-88
2023/06/19 05:43:43;;;;;;;3.57;3.10;;;;;;;;;;6166786;23;20356;-89
2023/06/19 05:46:09;;;;;;;3.87;3.40;;;;;;;;;;6144464;23;20403;-89
2023/06/19 05:48:35;;;;;;;4.83;2.80;;;;;;;;;;6145841;23;20380;-88
2023/06/19 05:51:01;;;;;;;7.03;2.83;;;;;;;;;;6167889;23;20395;-88
2023/06/19 05:53:27;;;;;;;4.67;2.90;;;;;;;;;;6143057;23;20368;-88
2023/06/19 05:55:53;;;;;;;4.30;3.37;;;;;;;;;;6142743;23;20387;-89
2023/06/19 05:58:21;;;;;;;3.70;3.20;;;;;;;;;;6140906;23;20384;-89
2023/06/19 06:00:47;;;;;;;5.03;3.60;;;;;;;;;;6140701;23;20379;-88
2023/06/19 06:03:13;;;;;;;4.13;3.43;;;;;;;;;;6163926;23;20954;-89
2023/06/19 06:05:39;;;;;;;4.00;3.60;;;;;;;;;;6140969;23;20419;-89
2023/06/19 06:08:05;;;;;;;3.87;3.37;;;;;;;;;;6141333;23;20372;-89
2023/06/19 06:10:31;;;;;;;4.47;3.27;;;;;;;;;;6141524;23;20508;-89
2023/06/19 06:12:57;;;;;;;5.10;3.53;;;;;;;;;;6140409;23;20387;-90
2023/06/19 06:15:23;;;;;;;3.90;3.50;;;;;;;;;;6142914;23;20443;-90
2023/06/19 06:17:49;;;;;;;8.70;3.43;;;;;;;;;;6140229;23;20379;-90
2023/06/19 06:20:16;;;;;;;4.27;3.13;;;;;;;;;;6142374;23;20391;-89
2023/06/19 06:22:42;;;;;;;3.80;3.00;;;;;;;;;;6136534;23;20427;-88
2023/06/19 06:25:12;;;;;;;4.33;3.60;;;;;;;;;;6138143;23;20977;-91
2023/06/19 06:27:39;;;;;;;3.90;3.10;;;;;;;;;;6139251;23;20352;-89
2023/06/19 06:30:05;;;;;;;3.73;3.10;;;;;;;;;;6140324;23;20438;-89
2023/06/19 06:32:31;;;;;;;3.40;3.10;;;;;;;;;;6138966;23;20381;-90
2023/06/19 06:34:58;;;;;;;3.70;3.17;;;;;;;;;;6141738;23;20418;-90
2023/06/19 06:37:25;;;;;;;4.30;3.10;;;;;;;;;;6140332;23;20379;-91
2023/06/19 06:39:50;;;;;;;3.53;2.90;;;;;;;;;;6144190;23;20376;-90
2023/06/19 06:42:17;;;;;;;4.80;4.00;;;;;;;;;;6139802;23;20416;-91
2023/06/19 06:44:43;;;;;;;4.10;3.20;;;;;;;;;;6141381;23;20397;-90
2023/06/19 06:47:09;;;;;;;3.23;2.90;;;;;;;;;;6139249;23;20892;-90
2023/06/19 06:49:36;;;;;;;3.77;2.57;;;;;;;;;;6140071;23;20446;-89
2023/06/19 06:52:02;;;;;;;4.30;3.00;;;;;;;;;;6138698;23;20388;-89
2023/06/19 06:54:28;;;;;;;3.70;2.83;;;;;;;;;;6138693;23;20718;-90
2023/06/19 06:56:58;;;;;;;4.10;3.00;;;;;;;;;;6162506;23;20371;-88
2023/06/19 06:59:24;;;;;;;7.50;3.10;;;;;;;;;;6139010;23;20380;-89
2023/06/19 07:01:50;;;;;;;3.73;2.60;;;;;;;;;;6162399;23;21006;-89
2023/06/19 07:04:16;;;;;;;2.93;2.63;;;;;;;;;;6138958;23;20375;-90
2023/06/19 07:06:42;;;;;;;4.33;3.23;;;;;;;;;;6138904;23;20411;-88
2023/06/19 07:09:08;;;;;;;3.70;2.87;;;;;;;;;;6139221;23;20391;-90
2023/06/19 07:11:34;;;;;;;3.50;2.70;;;;;;;;;;6137160;23;20407;-89
2023/06/19 07:14:06;;;;;;;4.53;2.80;;;;;;;;;;6138350;23;20376;-91
2023/06/19 07:16:32;;;;;;;3.00;2.70;;;;;;;;;;6138882;23;20404;-89
2023/06/19 07:18:59;;;;;;;3.80;2.80;;;;;;;;;;6140195;23;20380;-89
2023/06/19 07:21:25;;;;;;;3.60;2.80;;;;;;;;;;6108962;23;20376;-90
2023/06/19 07:23:52;;;;;;;3.57;2.53;;;;;;;;;;6138716;23;20419;-90
2023/06/19 07:26:18;;;;;;;4.20;2.80;;;;;;;;;;6137990;23;20403;-89
2023/06/19 07:28:44;;;;;;;4.27;2.87;;;;;;;;;;6136817;23;20395;-89
2023/06/19 07:31:10;;;;;;;3.60;2.33;;;;;;;;;;6136541;23;20836;-88
2023/06/19 07:33:36;;;;;;;3.67;2.97;;;;;;;;;;6129795;23;20380;-86
2023/06/19 07:36:02;;;;;;;4.60;2.73;;;;;;;;;;6138124;23;21317;-89
2023/06/19 07:38:28;;;;;;;3.80;3.00;;;;;;;;;;6135275;23;20384;-89
2023/06/19 07:40:54;;;;;;;3.43;2.50;;;;;;;;;;6135640;23;20395;-89
2023/06/19 07:43:22;;;;;;;2.83;2.33;;;;;;;;;;6136002;23;20970;-89
2023/06/19 07:45:48;;;;;;;3.33;2.67;;;;;;;;;;6138778;23;20380;-89
2023/06/19 07:48:14;;;;;;;2.70;2.40;;;;;;;;;;6136298;23;20384;-89
2023/06/19 07:50:40;;;;;;;2.93;2.40;;;;;;;;;;6136423;23;20407;-88
2023/06/19 07:53:06;;;;;;;5.20;2.70;;;;;;;;;;6136496;23;20467;-88
2023/06/19 07:55:35;;;;;;;4.13;3.27;;;;;;;;;;6143937;23;20391;-90
2023/06/19 07:58:01;;;;;;;3.90;3.00;;;;;;;;;;6172893;23;20480;-90
2023/06/19 08:00:27;;;;;;;4.53;2.90;;;;;;;;;;6148843;23;20937;-90
2023/06/19 08:02:54;;;;;;;3.93;3.13;;;;;;;;;;6144594;23;20427;-90
2023/06/19 08:05:20;;;;;;;4.73;2.73;;;;;;;;;;6162303;23;20380;-90
2023/06/19 08:07:46;;;;;;;4.20;3.10;;;;;;;;;;6166070;23;20443;-93
2023/06/19 08:10:13;;;;;;;4.30;2.97;;;;;;;;;;6169492;23;20372;-94
2023/06/19 08:12:41;;;;;;;5.23;3.27;;;;;;;;;;6110554;23;20810;-96
2023/06/19 08:15:07;;;;;;;3.73;2.90;;;;;;;;;;6090237;23;20421;-95
2023/06/19 08:17:34;;;;;;;4.30;3.10;;;;;;;;;;6080128;23;21114;-87
2023/06/19 08:20:00;;;;;;;3.53;3.03;;;;;;;;;;6080347;23;20449;-89
2023/06/19 08:22:26;;;;;;;3.80;2.80;;;;;;;;;;6078777;23;20723;-88
2023/06/19 08:24:53;;;;;;;3.07;2.73;;;;;;;;;;6080119;23;20583;-87
2023/06/19 08:27:19;;;;;;;5.40;3.43;;;;;;;;;;6080247;23;20382;-92
2023/06/19 08:29:45;;;;;;;4.43;2.57;;;;;;;;;;6080844;23;20408;-87
2023/06/19 08:32:11;;;;;;;4.27;3.50;;;;;;;;;;6078194;23;20454;-89
2023/06/19 08:34:38;;;;;;;3.50;3.10;;;;;;;;;;6079634;23;20416;-89
2023/06/19 08:37:04;;;;;;;5.90;3.97;;;;;;;;;;6056482;23;20371;-89
2023/06/19 08:39:30;;;;;;;4.70;3.17;;;;;;;;;;6050816;23;20401;-90
2023/06/19 08:41:56;;;;;;;3.67;3.20;;;;;;;;;;6050275;23;20848;-90
2023/06/19 08:44:22;;;;;;;5.43;3.80;;;;;;;;;;6052662;23;20379;-89
2023/06/19 08:46:48;;;;;;;3.77;3.20;;;;;;;;;;6077649;23;20622;-89
2023/06/19 08:49:14;;;;;;;4.23;3.40;;;;;;;;;;6052762;23;20386;-89
2023/06/19 08:51:40;;;;;;;3.47;2.93;;;;;;;;;;6053247;23;20383;-89
2023/06/19 08:54:07;;;;;;;3.57;3.03;;;;;;;;;;6050755;23;20882;-90
2023/06/19 08:56:34;;;;;;;3.50;3.10;;;;;;;;;;6098753;23;20458;-89
2023/06/19 08:59:16;;;;;;;3.17;2.70;;;;;;;;;;6141302;23;21139;-89
2023/06/19 09:01:51;;;;;;;3.23;2.93;;;;;;;;;;6140119;23;20475;-90
2023/06/19 09:04:18;;;;;;;3.57;3.27;;;;;;;;;;6139261;23;20883;-91
2023/06/19 09:06:48;;;;;;;6.20;3.43;;;;;;;;;;6141842;23;20376;-92
2023/06/19 09:09:15;;;;;;;3.40;3.07;;;;;;;;;;6142364;23;20380;-91
2023/06/19 09:11:43;;;;;;;3.50;3.00;;;;;;;;;;6143195;23;20464;-91
2023/06/19 09:14:10;;;;;;;4.30;2.50;;;;;;;;;;6143415;23;20380;-90
2023/06/19 09:16:40;;;;;;;7.60;3.17;;;;;;;;;;6139947;23;20387;-90
2023/06/19 09:19:06;;;;;;;4.20;3.30;;;;;;;;;;6166127;23;20788;-90
2023/06/19 09:24:09;;;;;;;2.90;2.40;;;;;;;;;;6191446;23;20514;-91
2023/06/19 09:26:36;;;;;;;4.00;3.20;;;;;;;;;;6142044;23;20459;-90
2023/06/19 09:29:18;;;;;;;4.30;2.90;;;;;;;;;;6196643;23;20368;-91
2023/06/19 09:31:44;;;;;;;3.73;3.20;;;;;;;;;;6141659;23;20383;-91
2023/06/19 09:34:10;;;;;;;3.50;2.90;;;;;;;;;;6143322;23;20383;-90
2023/06/19 09:36:37;;;;;;;3.40;3.03;;;;;;;;;;6141835;23;20455;-90
2023/06/19 09:42:13;;;;;;;3.90;3.23;;;;;;;;;;6194522;23;20486;-90
2023/06/19 09:44:42;;;;;;;5.73;4.33;;;;;;;;;;6142716;23;20372;-90
2023/06/19 09:47:24;;;;;;;4.50;4.07;;;;;;;;;;6142823;23;20136;-89
2023/06/19 09:49:50;;;;;;;4.00;3.60;;;;;;;;;;6143796;23;20435;-89
2023/06/19 09:52:17;;;;;;;5.33;3.57;;;;;;;;;;6142203;23;20387;-90
2023/06/19 09:54:43;;;;;;;4.23;3.67;;;;;;;;;;6145606;23;20902;-89
2023/06/19 09:57:10;;;;;;;3.10;2.80;;;;;;;;;;6141082;23;20897;-92
2023/06/19 09:59:37;;;;;;;3.43;2.87;;;;;;;;;;6146188;23;20379;-91
2023/06/19 10:02:06;;;;;;;5.30;3.13;;;;;;;;;;6143509;23;20431;-87
2023/06/19 10:04:45;;;;;;;6.67;4.20;;;;;;;;;;6143098;23;20403;-91
2023/06/19 10:07:21;;;;;;;5.73;3.70;;;;;;;;;;6143341;23;20388;-91
2023/06/19 10:09:56;;;;;;;4.13;3.73;;;;;;;;;;6142108;23;20772;-88
2023/06/19 10:12:22;;;;;;;3.50;2.60;;;;;;;;;;6167627;23;20843;-90
2023/06/19 10:14:50;;;;;;;6.73;3.53;;;;;;;;;;6142784;23;20395;-90
2023/06/19 10:17:18;;;;;;;3.80;3.20;;;;;;;;;;6142135;23;20391;-89
2023/06/19 10:19:51;;;;;;;4.60;4.00;;;;;;;;;;6142256;23;20399;-88
2023/06/19 10:22:23;;;;;;;4.63;4.20;;;;;;;;;;6166072;23;20436;-89
2023/06/19 10:24:50;;;;;;;4.70;4.20;;;;;;;;;;6143573;23;20802;-90
2023/06/19 10:27:21;;;;;;;5.60;3.70;;;;;;;;;;6139719;23;20387;-90
2023/06/19 10:29:51;;;;;;;4.47;3.93;;;;;;;;;;6139812;23;20372;-90
2023/06/19 10:32:18;;;;;;;4.60;4.20;;;;;;;;;;6163873;23;20377;-90
2023/06/19 10:34:48;;;;;;;7.60;4.60;;;;;;;;;;6146830;23;20376;-90
2023/06/19 10:37:17;;;;;;;4.97;3.87;;;;;;;;;;6142243;23;20407;-91
2023/06/19 10:39:44;;;;;;;4.97;4.47;;;;;;;;;;6143532;23;20438;-89
2023/06/19 10:42:10;;;;;;;4.50;3.37;;;;;;;;;;6139248;23;20491;-90
2023/06/19 10:44:37;;;;;;;4.33;3.80;;;;;;;;;;6141027;23;20387;-89
2023/06/19 10:47:04;;;;;;;5.63;5.03;;;;;;;;;;6140090;23;20875;-90
2023/06/19 10:49:30;;;;;;;12.43;4.17;;;;;;;;;;6141837;23;20384;-90
2023/06/19 10:51:58;;;;;;;4.10;3.70;;;;;;;;;;6139978;23;20403;-90
2023/06/19 10:54:25;;;;;;;6.30;3.83;;;;;;;;;;6173763;23;20354;-90
2023/06/19 10:56:51;;;;;;;4.47;4.07;;;;;;;;;;6142716;23;20380;-91
2023/06/19 10:59:18;;;;;;;5.80;4.40;;;;;;;;;;6142063;23;21104;-92
2023/06/19 11:01:51;;;;;;;6.77;4.43;;;;;;;;;;6140511;23;20431;-90
2023/06/19 11:04:17;;;;;;;4.87;4.37;;;;;;;;;;6144518;23;20392;-90
2023/06/19 11:06:44;;;;;;;5.87;3.47;;;;;;;;;;6146278;23;20884;-91
2023/06/19 11:09:12;;;;;;;4.43;4.03;;;;;;;;;;6139450;23;20709;-90
2023/06/19 11:11:38;;;;;;;4.73;4.33;;;;;;;;;;6140508;23;20471;-90
2023/06/19 11:14:04;;;;;;;5.80;4.80;;;;;;;;;;6162535;23;20479;-90
2023/06/19 11:16:30;;;;;;;4.03;3.60;;;;;;;;;;6139618;23;20392;-90
2023/06/19 11:18:56;;;;;;;4.50;4.10;;;;;;;;;;6162787;23;20376;-91
2023/06/19 11:21:29;;;;;;;5.07;3.93;;;;;;;;;;6140411;23;20392;-91
2023/06/19 11:23:58;;;;;;;4.97;4.47;;;;;;;;;;6163254;23;20360;-91
2023/06/19 11:26:25;;;;;;;6.50;3.70;;;;;;;;;;6139670;23;20384;-90
2023/06/19 11:28:51;;;;;;;4.70;4.10;;;;;;;;;;6162059;23;20360;-90
2023/06/19 11:31:17;;;;;;;6.30;4.47;;;;;;;;;;6138572;23;20415;-90
2023/06/19 11:33:43;;;;;;;5.43;4.50;;;;;;;;;;6138375;23;20380;-89
2023/06/19 11:36:09;;;;;;;4.87;4.37;;;;;;;;;;6143708;23;20376;-90
2023/06/19 11:38:36;;;;;;;5.13;4.23;;;;;;;;;;6137928;23;20395;-90
2023/06/19 11:41:02;;;;;;;4.27;3.90;;;;;;;;;;6139129;23;20372;-90
2023/06/19 11:43:31;;;;;;;4.83;3.93;;;;;;;;;;6139135;23;20950;-90
2023/06/19 11:46:04;;;;;;;4.23;3.80;;;;;;;;;;6140168;23;20388;-90
2023/06/19 11:48:30;;;;;;;4.80;4.30;;;;;;;;;;6137575;23;20384;-91
2023/06/19 11:50:58;;;;;;;4.93;4.43;;;;;;;;;;6139551;23;20382;-92
2023/06/19 11:53:25;;;;;;;5.20;4.67;;;;;;;;;;6163729;23;20448;-91
2023/06/19 11:55:52;;;;;;;4.90;4.40;;;;;;;;;;6141849;23;20402;-91
2023/06/19 11:58:20;;;;;;;4.80;3.80;;;;;;;;;;6139694;23;20418;-91
2023/06/19 12:00:46;;;;;;;4.00;3.53;;;;;;;;;;6136944;23;20384;-92
2023/06/19 12:03:12;;;;;;;4.50;4.03;;;;;;;;;;6139691;23;20780;-91
2023/06/19 12:05:38;;;;;;;4.20;3.80;;;;;;;;;;6139168;23;20463;-91
2023/06/19 12:08:05;;;;;;;5.83;4.03;;;;;;;;;;6136989;23;20403;-91
2023/06/19 12:10:31;;;;;;;4.87;4.37;;;;;;;;;;6144933;23;20470;-90
2023/06/19 12:12:57;;;;;;;4.37;3.97;;;;;;;;;;6134442;23;20376;-89
2023/06/19 12:15:23;;;;;;;4.37;3.93;;;;;;;;;;6164929;23;20384;-90
2023/06/19 12:17:49;;;;;;;4.30;3.90;;;;;;;;;;6137690;23;20386;-91
2023/06/19 12:20:15;;;;;;;4.30;3.90;;;;;;;;;;6143147;23;20372;-90
2023/06/19 12:22:42;;;;;;;5.30;3.83;;;;;;;;;;6134299;23;20415;-89
2023/06/19 12:25:08;;;;;;;6.07;3.80;;;;;;;;;;6139881;23;20399;-91
2023/06/19 12:27:34;;;;;;;6.30;4.40;;;;;;;;;;6140370;23;20386;-90
2023/06/19 12:30:00;;;;;;;6.33;4.07;;;;;;;;;;6138643;23;20418;-91
2023/06/19 12:32:26;;;;;;;6.73;4.53;;;;;;;;;;6164531;23;20372;-91
2023/06/19 12:34:53;;;;;;;5.60;4.37;;;;;;;;;;6165075;23;20387;-90
2023/06/19 12:37:28;;;;;;;4.50;3.60;;;;;;;;;;6142146;23;20418;-91
2023/06/19 12:39:53;;;;;;;5.30;4.20;;;;;;;;;;6075325;23;20391;-91
2023/06/19 12:42:20;;;;;;;5.20;4.70;;;;;;;;;;6080340;23;20422;-92
2023/06/19 12:44:46;;;;;;;4.40;4.00;;;;;;;;;;6078371;23;20391;-90
2023/06/19 12:47:12;;;;;;;5.93;4.63;;;;;;;;;;6022445;23;20384;-92
2023/06/19 12:49:38;;;;;;;4.47;4.10;;;;;;;;;;6021397;23;20384;-90
2023/06/19 12:52:04;;;;;;;4.97;4.47;;;;;;;;;;6020865;23;20527;-87
2023/06/19 12:54:31;;;;;;;5.77;4.77;;;;;;;;;;6021440;23;20388;-89
2023/06/19 12:56:57;;;;;;;4.60;4.20;;;;;;;;;;6020662;23;20523;-90
2023/06/19 12:59:24;;;;;;;5.30;3.60;;;;;;;;;;6021704;23;20388;-90
2023/06/19 13:01:54;;;;;;;6.60;4.50;;;;;;;;;;6020204;23;20452;-89
2023/06/19 13:04:20;;;;;;;4.90;4.37;;;;;;;;;;6023752;23;20393;-90
2023/06/19 13:06:46;;;;;;;6.90;4.47;;;;;;;;;;6020520;23;20389;-91
2023/06/19 13:09:12;;;;;;;4.20;3.80;;;;;;;;;;5991638;23;20381;-89
2023/06/19 13:11:38;;;;;;;5.63;3.83;;;;;;;;;;6016495;23;20384;-90
2023/06/19 13:14:05;;;;;;;4.70;4.10;;;;;;;;;;6046217;23;20422;-90
2023/06/19 13:16:33;;;;;;;4.80;4.30;;;;;;;;;;6051587;23;20480;-91
2023/06/19 13:19:02;;;;;;;4.67;4.27;;;;;;;;;;6046998;23;20384;-89
2023/06/19 13:21:37;;;;;;;4.80;4.30;;;;;;;;;;6047785;23;20384;-90
2023/06/19 13:24:03;;;;;;;4.33;3.93;;;;;;;;;;6057114;23;20404;-90
2023/06/19 13:26:29;;;;;;;5.90;4.40;;;;;;;;;;6082799;23;20847;-90
2023/06/19 13:28:58;;;;;;;5.93;4.20;;;;;;;;;;6080789;23;20386;-90
2023/06/19 13:31:25;;;;;;;4.90;4.00;;;;;;;;;;6105967;23;20888;-91
2023/06/19 13:33:52;;;;;;;5.83;5.17;;;;;;;;;;6077677;23;20828;-90
2023/06/19 13:36:19;;;;;;;4.67;4.17;;;;;;;;;;6080891;23;21009;-90
2023/06/19 13:38:46;;;;;;;4.57;4.17;;;;;;;;;;6104602;23;20390;-90
2023/06/19 13:41:15;;;;;;;5.87;4.47;;;;;;;;;;6080447;23;20377;-90
2023/06/19 13:43:41;;;;;;;4.83;4.40;;;;;;;;;;6102649;23;20437;-90
2023/06/19 13:46:07;;;;;;;4.90;4.50;;;;;;;;;;6123589;23;20372;-90
2023/06/19 13:48:33;;;;;;;6.83;4.47;;;;;;;;;;6138976;23;20446;-89
2023/06/19 13:51:00;;;;;;;5.50;4.43;;;;;;;;;;6141590;23;20376;-89
2023/06/19 13:53:28;;;;;;;5.50;5.00;;;;;;;;;;6138958;23;20908;-90
2023/06/19 13:55:54;;;;;;;4.70;4.30;;;;;;;;;;6140490;23;20399;-89
2023/06/19 13:58:20;;;;;;;6.07;4.10;;;;;;;;;;6137611;23;20384;-89
2023/06/19 14:00:46;;;;;;;4.50;4.07;;;;;;;;;;6138455;23;20876;-88
2023/06/19 14:03:13;;;;;;;4.67;4.07;;;;;;;;;;6135928;23;20550;-85
2023/06/19 14:05:40;;;;;;;8.87;4.47;;;;;;;;;;6134403;23;20414;-88
2023/06/19 14:08:06;;;;;;;5.97;4.30;;;;;;;;;;6135249;23;20384;-88
2023/06/19 14:10:32;;;;;;;3.80;3.40;;;;;;;;;;6136234;23;20448;-87
2023/06/19 14:12:58;;;;;;;6.83;4.33;;;;;;;;;;6134017;23;20395;-85
2023/06/19 14:15:24;;;;;;;4.73;4.27;;;;;;;;;;6160694;23;20394;-87
2023/06/19 14:17:50;;;;;;;4.87;4.27;;;;;;;;;;6133842;23;20507;-86
2023/06/19 14:20:16;;;;;;;5.03;4.53;;;;;;;;;;6135833;23;20555;-87
2023/06/19 14:22:42;;;;;;;4.40;3.97;;;;;;;;;;6134792;23;20434;-87
2023/06/19 14:25:08;;;;;;;4.57;4.17;;;;;;;;;;6137132;23;20879;-85
2023/06/19 14:27:36;;;;;;;4.40;4.00;;;;;;;;;;6127425;23;20382;-85
2023/06/19 14:30:02;;;;;;;4.80;4.40;;;;;;;;;;6078459;23;20471;-86
2023/06/19 14:32:28;;;;;;;4.83;3.90;;;;;;;;;;6075298;23;20401;-86
2023/06/19 14:34:54;;;;;;;5.30;4.80;;;;;;;;;;6079252;23;20445;-87
2023/06/19 14:37:20;;;;;;;5.13;4.63;;;;;;;;;;6075137;23;20397;-87
2023/06/19 14:39:47;;;;;;;4.73;4.20;;;;;;;;;;6077315;23;20442;-86
2023/06/19 14:42:13;;;;;;;4.23;3.73;;;;;;;;;;6077596;23;20425;-87
2023/06/19 14:44:39;;;;;;;4.57;4.17;;;;;;;;;;6076346;23;20389;-87
2023/06/19 14:47:05;;;;;;;5.60;4.40;;;;;;;;;;6103326;23;20380;-86
2023/06/19 14:49:31;;;;;;;4.87;4.37;;;;;;;;;;6074664;23;20414;-87
2023/06/19 14:51:57;;;;;;;5.87;5.13;;;;;;;;;;6074845;23;20414;-90